Beaufort, South Carolina
Current Conditions -  °F | °C
As of 7:55 PM on Tuesday 21 Oct 2014 (Local Time) from KARW Reporting Station
Clear Clear  
Wind Chill: 64°   Ceiling: Unl
Heat Index: 64°   Visibility: 10mi
Dew Point: 61°   Wind: 3mph
Humidity: 88%   Direction: 200°SSW
Pressure: 29.9"   Gusts: NA
Location:  32.43°N, 80.67°W
Report Text: KARW 212355Z AUTO 20003KT 10SM CLR 18/16 A2990 RMK AO2
Loading
Personal Weather Stations






























Interactive Weather Map New forecast layout! Learn more

10-Day Weather Forecast

Advertisements
Track Severe Weather on mobile